sensor_id;sensor_type;location;lat;lon;timestamp;pressure;altitude;pressure_sealevel;temperature;humidity
14253;BME280;7210;51.502;10.722;2023-09-30T00:00:31;100345.38;;;13.82;98.18
14253;BME280;7210;51.502;10.722;2023-09-30T00:02:59;100335.88;;;13.75;98.78
14253;BME280;7210;51.502;10.722;2023-09-30T00:05:28;100326.19;;;13.69;99.35
14253;BME280;7210;51.502;10.722;2023-09-30T00:07:55;100343.84;;;13.63;99.72
14253;BME280;7210;51.502;10.722;2023-09-30T00:10:22;100345.56;;;13.58;100.00
14253;BME280;7210;51.502;10.722;2023-09-30T00:12:49;100338.38;;;13.47;100.00
14253;BME280;7210;51.502;10.722;2023-09-30T00:15:16;100341.72;;;13.42;100.00
14253;BME280;7210;51.502;10.722;2023-09-30T00:17:44;100352.44;;;13.47;100.00
14253;BME280;7210;51.502;10.722;2023-09-30T00:20:11;100357.44;;;13.55;100.00
14253;BME280;7210;51.502;10.722;2023-09-30T00:22:42;100356.13;;;13.64;100.00
14253;BME280;7210;51.502;10.722;2023-09-30T00:25:09;100347.09;;;13.65;100.00
14253;BME280;7210;51.502;10.722;2023-09-30T00:27:37;100354.81;;;13.67;100.00
14253;BME280;7210;51.502;10.722;2023-09-30T00:30:05;100356.91;;;13.65;100.00
14253;BME280;7210;51.502;10.722;2023-09-30T00:32:34;100346.75;;;13.62;100.00
14253;BME280;7210;51.502;10.722;2023-09-30T00:35:03;100339.56;;;13.62;100.00
14253;BME280;7210;51.502;10.722;2023-09-30T00:37:34;100332.59;;;13.50;100.00
14253;BME280;7210;51.502;10.722;2023-09-30T00:40:05;100329.84;;;13.45;100.00
14253;BME280;7210;51.502;10.722;2023-09-30T00:42:34;100350.22;;;13.33;100.00
14253;BME280;7210;51.502;10.722;2023-09-30T00:45:16;100345.09;;;13.20;100.00
14253;BME280;7210;51.502;10.722;2023-09-30T00:47:43;100341.28;;;13.16;100.00
14253;BME280;7210;51.502;10.722;2023-09-30T00:50:16;100342.75;;;13.12;100.00
14253;BME280;7210;51.502;10.722;2023-09-30T00:52:52;100338.34;;;13.06;100.00
14253;BME280;7210;51.502;10.722;2023-09-30T00:55:22;100338.19;;;13.01;100.00
14253;BME280;7210;51.502;10.722;2023-09-30T00:57:50;100335.81;;;12.93;100.00
14253;BME280;7210;51.502;10.722;2023-09-30T01:00:18;100343.41;;;12.89;100.00
14253;BME280;7210;51.502;10.722;2023-09-30T01:02:45;100350.19;;;12.85;100.00
14253;BME280;7210;51.502;10.722;2023-09-30T01:05:14;100343.13;;;12.79;100.00
14253;BME280;7210;51.502;10.722;2023-09-30T01:07:41;100345.63;;;12.74;100.00
14253;BME280;7210;51.502;10.722;2023-09-30T01:10:09;100347.09;;;12.70;100.00
14253;BME280;7210;51.502;10.722;2023-09-30T01:12:38;100332.31;;;12.63;100.00
14253;BME280;7210;51.502;10.722;2023-09-30T01:15:06;100333.75;;;12.59;100.00
14253;BME280;7210;51.502;10.722;2023-09-30T01:17:33;100331.19;;;12.52;100.00
14253;BME280;7210;51.502;10.722;2023-09-30T01:20:00;100323.31;;;12.46;100.00
14253;BME280;7210;51.502;10.722;2023-09-30T01:22:41;100328.34;;;12.36;100.00
14253;BME280;7210;51.502;10.722;2023-09-30T01:25:10;100339.66;;;12.25;100.00
14253;BME280;7210;51.502;10.722;2023-09-30T01:27:38;100342.75;;;12.22;100.00
14253;BME280;7210;51.502;10.722;2023-09-30T01:30:07;100353.78;;;12.19;100.00
14253;BME280;7210;51.502;10.722;2023-09-30T01:32:36;100355.19;;;12.21;100.00
14253;BME280;7210;51.502;10.722;2023-09-30T01:35:05;100348.47;;;12.19;100.00
14253;BME280;7210;51.502;10.722;2023-09-30T01:37:32;100344.94;;;12.07;100.00
14253;BME280;7210;51.502;10.722;2023-09-30T01:40:12;100355.34;;;12.02;100.00
14253;BME280;7210;51.502;10.722;2023-09-30T01:42:46;100335.91;;;11.90;100.00
14253;BME280;7210;51.502;10.722;2023-09-30T01:45:16;100347.16;;;11.85;100.00
14253;BME280;7210;51.502;10.722;2023-09-30T01:47:46;100351.31;;;11.75;100.00
14253;BME280;7210;51.502;10.722;2023-09-30T01:50:13;100350.53;;;11.68;100.00
14253;BME280;7210;51.502;10.722;2023-09-30T01:52:59;100354.03;;;11.62;100.00
14253;BME280;7210;51.502;10.722;2023-09-30T01:55:36;100351.59;;;11.60;100.00
14253;BME280;7210;51.502;10.722;2023-09-30T01:58:04;100358.34;;;11.50;100.00
14253;BME280;7210;51.502;10.722;2023-09-30T02:00:32;100363.72;;;11.43;100.00
14253;BME280;7210;51.502;10.722;2023-09-30T02:03:01;100371.66;;;11.43;100.00
14253;BME280;7210;51.502;10.722;2023-09-30T02:05:34;100369.44;;;11.40;100.00
14253;BME280;7210;51.502;10.722;2023-09-30T02:08:03;100367.84;;;11.33;100.00
14253;BME280;7210;51.502;10.722;2023-09-30T02:10:32;100363.63;;;11.25;100.00
14253;BME280;7210;51.502;10.722;2023-09-30T02:13:01;100359.34;;;11.24;100.00
14253;BME280;7210;51.502;10.722;2023-09-30T02:15:34;100366.28;;;11.19;100.00
14253;BME280;7210;51.502;10.722;2023-09-30T02:18:10;100356.97;;;11.10;100.00
14253;BME280;7210;51.502;10.722;2023-09-30T02:20:40;100374.84;;;11.21;100.00
14253;BME280;7210;51.502;10.722;2023-09-30T02:23:09;100359.81;;;11.15;100.00
14253;BME280;7210;51.502;10.722;2023-09-30T02:25:40;100371.56;;;11.25;100.00
14253;BME280;7210;51.502;10.722;2023-09-30T02:28:09;100367.50;;;11.23;100.00
14253;BME280;7210;51.502;10.722;2023-09-30T02:30:37;100373.19;;;11.26;100.00
14253;BME280;7210;51.502;10.722;2023-09-30T02:33:04;100371.16;;;11.22;100.00
14253;BME280;7210;51.502;10.722;2023-09-30T02:35:44;100374.81;;;11.27;100.00
14253;BME280;7210;51.502;10.722;2023-09-30T02:38:16;100377.66;;;11.26;100.00
14253;BME280;7210;51.502;10.722;2023-09-30T02:40:44;100369.72;;;11.26;100.00
14253;BME280;7210;51.502;10.722;2023-09-30T02:43:17;100360.59;;;11.22;100.00
14253;BME280;7210;51.502;10.722;2023-09-30T02:45:46;100376.28;;;11.17;100.00
14253;BME280;7210;51.502;10.722;2023-09-30T02:48:13;100374.47;;;11.11;100.00
14253;BME280;7210;51.502;10.722;2023-09-30T02:50:42;100370.84;;;11.06;100.00
14253;BME280;7210;51.502;10.722;2023-09-30T02:53:11;100373.09;;;11.02;100.00
14253;BME280;7210;51.502;10.722;2023-09-30T02:55:39;100368.22;;;10.99;100.00
14253;BME280;7210;51.502;10.722;2023-09-30T02:58:07;100374.91;;;11.08;100.00
14253;BME280;7210;51.502;10.722;2023-09-30T03:00:36;100369.56;;;11.14;100.00
14253;BME280;7210;51.502;10.722;2023-09-30T03:03:04;100364.66;;;11.18;100.00
14253;BME280;7210;51.502;10.722;2023-09-30T03:05:31;100357.34;;;11.20;100.00
14253;BME280;7210;51.502;10.722;2023-09-30T03:08:05;100360.59;;;11.22;100.00
14253;BME280;7210;51.502;10.722;2023-09-30T03:10:32;100377.50;;;11.21;100.00
14253;BME280;7210;51.502;10.722;2023-09-30T03:13:00;100389.09;;;11.20;100.00
14253;BME280;7210;51.502;10.722;2023-09-30T03:15:27;100387.06;;;11.22;100.00
14253;BME280;7210;51.502;10.722;2023-09-30T03:17:59;100384.41;;;11.22;100.00
14253;BME280;7210;51.502;10.722;2023-09-30T03:20:27;100380.13;;;11.21;100.00
14253;BME280;7210;51.502;10.722;2023-09-30T03:22:58;100381.41;;;11.12;100.00
14253;BME280;7210;51.502;10.722;2023-09-30T03:25:26;100377.34;;;11.03;100.00
14253;BME280;7210;51.502;10.722;2023-09-30T03:27:58;100375.72;;;11.02;100.00
14253;BME280;7210;51.502;10.722;2023-09-30T03:30:25;100375.97;;;11.01;100.00
14253;BME280;7210;51.502;10.722;2023-09-30T03:32:52;100361.50;;;10.97;100.00
14253;BME280;7210;51.502;10.722;2023-09-30T03:35:21;100374.16;;;10.95;100.00
14253;BME280;7210;51.502;10.722;2023-09-30T03:37:49;100379.22;;;10.96;100.00
14253;BME280;7210;51.502;10.722;2023-09-30T03:40:17;100372.53;;;10.94;100.00
14253;BME280;7210;51.502;10.722;2023-09-30T03:42:47;100376.56;;;11.03;100.00
14253;BME280;7210;51.502;10.722;2023-09-30T03:45:15;100392.41;;;11.09;100.00
14253;BME280;7210;51.502;10.722;2023-09-30T03:47:44;100384.25;;;11.11;100.00
14253;BME280;7210;51.502;10.722;2023-09-30T03:50:11;100356.66;;;10.94;100.00
14253;BME280;7210;51.502;10.722;2023-09-30T03:52:43;100383.03;;;11.13;100.00
14253;BME280;7210;51.502;10.722;2023-09-30T03:55:16;100376.94;;;11.06;100.00
14253;BME280;7210;51.502;10.722;2023-09-30T03:57:46;100385.91;;;11.05;100.00
14253;BME280;7210;51.502;10.722;2023-09-30T04:00:14;100357.91;;;10.78;100.00
14253;BME280;7210;51.502;10.722;2023-09-30T04:02:46;100402.63;;;10.99;100.00
14253;BME280;7210;51.502;10.722;2023-09-30T04:05:16;100374.22;;;10.75;100.00
14253;BME280;7210;51.502;10.722;2023-09-30T04:07:45;100407.13;;;10.92;100.00
14253;BME280;7210;51.502;10.722;2023-09-30T04:10:13;100410.38;;;10.94;100.00
14253;BME280;7210;51.502;10.722;2023-09-30T04:12:52;100404.69;;;10.97;100.00
14253;BME280;7210;51.502;10.722;2023-09-30T04:15:20;100402.22;;;10.96;100.00
14253;BME280;7210;51.502;10.722;2023-09-30T04:17:48;100402.03;;;10.91;100.00
14253;BME280;7210;51.502;10.722;2023-09-30T04:20:43;100409.78;;;10.86;100.00
14253;BME280;7210;51.502;10.722;2023-09-30T04:23:14;100405.53;;;10.78;100.00
14253;BME280;7210;51.502;10.722;2023-09-30T04:25:41;100388.69;;;10.66;100.00
14253;BME280;7210;51.502;10.722;2023-09-30T04:28:10;100419.56;;;10.72;100.00
14253;BME280;7210;51.502;10.722;2023-09-30T04:30:37;100427.13;;;10.69;100.00
14253;BME280;7210;51.502;10.722;2023-09-30T04:33:18;100418.19;;;10.63;100.00
14253;BME280;7210;51.502;10.722;2023-09-30T04:35:52;100436.09;;;10.55;100.00
14253;BME280;7210;51.502;10.722;2023-09-30T04:38:29;100455.03;;;10.58;100.00
14253;BME280;7210;51.502;10.722;2023-09-30T04:41:04;100456.03;;;10.51;100.00
14253;BME280;7210;51.502;10.722;2023-09-30T04:43:33;100446.06;;;10.46;100.00
14253;BME280;7210;51.502;10.722;2023-09-30T04:46:10;100432.25;;;10.44;100.00
14253;BME280;7210;51.502;10.722;2023-09-30T04:48:38;100419.84;;;10.38;100.00
14253;BME280;7210;51.502;10.722;2023-09-30T04:51:07;100425.53;;;10.48;100.00
14253;BME280;7210;51.502;10.722;2023-09-30T04:53:36;100424.31;;;10.51;100.00
14253;BME280;7210;51.502;10.722;2023-09-30T04:56:03;100438.94;;;10.53;100.00
14253;BME280;7210;51.502;10.722;2023-09-30T04:58:31;100440.56;;;10.54;100.00
14253;BME280;7210;51.502;10.722;2023-09-30T05:01:04;100448.94;;;10.51;100.00
14253;BME280;7210;51.502;10.722;2023-09-30T05:03:34;100457.25;;;10.55;100.00
14253;BME280;7210;51.502;10.722;2023-09-30T05:06:02;100463.78;;;10.52;100.00
14253;BME280;7210;51.502;10.722;2023-09-30T05:08:29;100463.78;;;10.52;100.00
14253;BME280;7210;51.502;10.722;2023-09-30T05:10:58;100473.94;;;10.55;100.00
14253;BME280;7210;51.502;10.722;2023-09-30T05:13:25;100472.09;;;10.49;100.00
14253;BME280;7210;51.502;10.722;2023-09-30T05:15:58;100474.13;;;10.47;100.00
14253;BME280;7210;51.502;10.722;2023-09-30T05:18:35;100469.47;;;10.43;100.00
14253;BME280;7210;51.502;10.722;2023-09-30T05:21:03;100473.13;;;10.48;100.00
14253;BME280;7210;51.502;10.722;2023-09-30T05:23:30;100470.69;;;10.47;100.00
14253;BME280;7210;51.502;10.722;2023-09-30T05:25:59;100475.16;;;10.46;100.00
14253;BME280;7210;51.502;10.722;2023-09-30T05:28:34;100472.94;;;10.43;100.00
14253;BME280;7210;51.502;10.722;2023-09-30T05:31:05;100473.31;;;10.40;100.00
14253;BME280;7210;51.502;10.722;2023-09-30T05:33:41;100500.22;;;11.33;100.00
14253;BME280;7210;51.502;10.722;2023-09-30T05:36:10;100518.44;;;12.35;100.00
14253;BME280;7210;51.502;10.722;2023-09-30T05:38:39;100515.50;;;12.99;100.00
14253;BME280;7210;51.502;10.722;2023-09-30T05:41:09;100507.97;;;13.68;100.00
14253;BME280;7210;51.502;10.722;2023-09-30T05:43:37;100471.16;;;14.24;100.00
14253;BME280;7210;51.502;10.722;2023-09-30T05:46:06;100451.88;;;14.63;100.00
14253;BME280;7210;51.502;10.722;2023-09-30T05:48:36;100437.19;;;14.72;100.00
14253;BME280;7210;51.502;10.722;2023-09-30T05:51:05;100422.13;;;14.77;100.00
14253;BME280;7210;51.502;10.722;2023-09-30T05:53:33;100422.59;;;14.74;100.00
14253;BME280;7210;51.502;10.722;2023-09-30T05:56:03;100415.19;;;14.53;100.00
14253;BME280;7210;51.502;10.722;2023-09-30T05:58:32;100420.84;;;14.34;100.00
14253;BME280;7210;51.502;10.722;2023-09-30T06:01:00;100431.44;;;14.11;100.00
14253;BME280;7210;51.502;10.722;2023-09-30T06:03:27;100458.81;;;14.41;100.00
14253;BME280;7210;51.502;10.722;2023-09-30T06:05:55;100459.50;;;14.25;100.00
14253;BME280;7210;51.502;10.722;2023-09-30T06:08:23;100449.34;;;13.63;100.00
14253;BME280;7210;51.502;10.722;2023-09-30T06:10:52;100488.06;;;13.70;100.00
14253;BME280;7210;51.502;10.722;2023-09-30T06:13:20;100486.69;;;13.50;100.00
14253;BME280;7210;51.502;10.722;2023-09-30T06:15:53;100486.28;;;13.17;100.00
14253;BME280;7210;51.502;10.722;2023-09-30T06:18:21;100498.28;;;13.01;100.00
14253;BME280;7210;51.502;10.722;2023-09-30T06:20:49;100511.69;;;12.88;100.00
14253;BME280;7210;51.502;10.722;2023-09-30T06:23:18;100525.00;;;12.82;100.00
14253;BME280;7210;51.502;10.722;2023-09-30T06:25:45;100539.53;;;12.79;100.00
14253;BME280;7210;51.502;10.722;2023-09-30T06:28:12;100536.50;;;12.76;100.00
14253;BME280;7210;51.502;10.722;2023-09-30T06:30:40;100552.19;;;12.77;100.00
14253;BME280;7210;51.502;10.722;2023-09-30T06:33:10;100559.34;;;12.77;100.00
14253;BME280;7210;51.502;10.722;2023-09-30T06:35:41;100548.56;;;12.72;100.00
14253;BME280;7210;51.502;10.722;2023-09-30T06:38:16;100564.22;;;12.80;100.00
14253;BME280;7210;51.502;10.722;2023-09-30T06:40:46;100583.75;;;12.85;100.00
14253;BME280;7210;51.502;10.722;2023-09-30T06:43:15;100598.63;;;12.93;100.00
14253;BME280;7210;51.502;10.722;2023-09-30T06:45:42;100614.31;;;13.01;100.00
14253;BME280;7210;51.502;10.722;2023-09-30T06:48:12;100627.31;;;13.09;100.00
14253;BME280;7210;51.502;10.722;2023-09-30T06:50:47;100633.97;;;13.18;100.00
14253;BME280;7210;51.502;10.722;2023-09-30T06:53:15;100655.38;;;13.23;100.00
14253;BME280;7210;51.502;10.722;2023-09-30T06:55:43;100673.53;;;13.50;100.00
14253;BME280;7210;51.502;10.722;2023-09-30T06:58:10;100678.94;;;13.80;100.00
14253;BME280;7210;51.502;10.722;2023-09-30T07:00:38;100670.81;;;13.93;100.00
14253;BME280;7210;51.502;10.722;2023-09-30T07:03:05;100693.44;;;14.20;100.00
14253;BME280;7210;51.502;10.722;2023-09-30T07:05:35;100677.06;;;14.16;100.00
14253;BME280;7210;51.502;10.722;2023-09-30T07:08:03;100686.66;;;14.24;100.00
14253;BME280;7210;51.502;10.722;2023-09-30T07:10:31;100669.88;;;14.05;100.00
14253;BME280;7210;51.502;10.722;2023-09-30T07:12:58;100679.53;;;14.00;100.00
14253;BME280;7210;51.502;10.722;2023-09-30T07:15:25;100689.72;;;14.03;100.00
14253;BME280;7210;51.502;10.722;2023-09-30T07:17:58;100687.91;;;14.03;100.00
14253;BME280;7210;51.502;10.722;2023-09-30T07:20:28;100692.53;;;14.08;100.00
14253;BME280;7210;51.502;10.722;2023-09-30T07:23:00;100702.28;;;14.14;100.00
14253;BME280;7210;51.502;10.722;2023-09-30T07:25:29;100722.19;;;14.29;100.00
14253;BME280;7210;51.502;10.722;2023-09-30T07:27:58;100720.47;;;14.35;100.00
14253;BME280;7210;51.502;10.722;2023-09-30T07:30:26;100714.00;;;14.31;100.00
14253;BME280;7210;51.502;10.722;2023-09-30T07:32:58;100715.47;;;14.27;100.00
14253;BME280;7210;51.502;10.722;2023-09-30T07:35:25;100736.09;;;14.49;100.00
14253;BME280;7210;51.502;10.722;2023-09-30T07:37:53;100731.19;;;14.46;100.00
14253;BME280;7210;51.502;10.722;2023-09-30T07:40:21;100735.84;;;14.51;100.00
14253;BME280;7210;51.502;10.722;2023-09-30T07:42:48;100737.03;;;14.55;100.00
14253;BME280;7210;51.502;10.722;2023-09-30T07:45:17;100736.34;;;14.59;100.00
14253;BME280;7210;51.502;10.722;2023-09-30T07:47:46;100724.75;;;14.54;100.00
14253;BME280;7210;51.502;10.722;2023-09-30T07:50:13;100734.94;;;14.57;100.00
14253;BME280;7210;51.502;10.722;2023-09-30T07:52:40;100746.84;;;14.84;100.00
14253;BME280;7210;51.502;10.722;2023-09-30T07:55:09;100749.50;;;15.02;100.00
14253;BME280;7210;51.502;10.722;2023-09-30T07:57:43;100761.00;;;15.25;100.00
14253;BME280;7210;51.502;10.722;2023-09-30T08:00:13;100762.03;;;15.42;99.97
14253;BME280;7210;51.502;10.722;2023-09-30T08:02:42;100759.81;;;15.50;99.46
14253;BME280;7210;51.502;10.722;2023-09-30T08:05:10;100738.13;;;15.35;98.75
14253;BME280;7210;51.502;10.722;2023-09-30T08:07:39;100739.41;;;15.44;98.32
14253;BME280;7210;51.502;10.722;2023-09-30T08:10:08;100728.03;;;15.37;97.48
14253;BME280;7210;51.502;10.722;2023-09-30T08:12:40;100743.38;;;15.53;96.86
14253;BME280;7210;51.502;10.722;2023-09-30T08:15:10;100755.56;;;15.61;96.58
14253;BME280;7210;51.502;10.722;2023-09-30T08:17:38;100764.47;;;15.66;96.17
14253;BME280;7210;51.502;10.722;2023-09-30T08:20:08;100766.81;;;15.74;95.80
14253;BME280;7210;51.502;10.722;2023-09-30T08:22:35;100768.56;;;15.80;95.35
14253;BME280;7210;51.502;10.722;2023-09-30T08:25:04;100765.53;;;15.77;94.66
14253;BME280;7210;51.502;10.722;2023-09-30T08:27:32;100752.19;;;15.65;94.06
14253;BME280;7210;51.502;10.722;2023-09-30T08:30:01;100758.00;;;15.62;93.49
14253;BME280;7210;51.502;10.722;2023-09-30T08:32:33;100771.91;;;15.76;93.59
14253;BME280;7210;51.502;10.722;2023-09-30T08:35:01;100774.47;;;15.82;93.05
14253;BME280;7210;51.502;10.722;2023-09-30T08:37:28;100761.13;;;15.71;92.35
14253;BME280;7210;51.502;10.722;2023-09-30T08:39:56;100782.34;;;15.77;92.18
14253;BME280;7210;51.502;10.722;2023-09-30T08:42:28;100800.09;;;15.95;91.96
14253;BME280;7210;51.502;10.722;2023-09-30T08:44:58;100789.31;;;16.01;91.36
14253;BME280;7210;51.502;10.722;2023-09-30T08:47:28;100793.69;;;16.07;91.14
14253;BME280;7210;51.502;10.722;2023-09-30T08:49:59;100816.56;;;16.26;90.65
14253;BME280;7210;51.502;10.722;2023-09-30T08:52:35;100795.00;;;16.16;89.91
14253;BME280;7210;51.502;10.722;2023-09-30T08:55:06;100798.59;;;16.10;89.44
14253;BME280;7210;51.502;10.722;2023-09-30T08:57:37;100792.34;;;16.16;88.89
14253;BME280;7210;51.502;10.722;2023-09-30T09:00:09;100811.47;;;16.13;88.98
14253;BME280;7210;51.502;10.722;2023-09-30T09:02:40;100809.72;;;16.07;88.54
14253;BME280;7210;51.502;10.722;2023-09-30T09:05:09;100799.66;;;15.98;88.08
14253;BME280;7210;51.502;10.722;2023-09-30T09:07:37;100788.41;;;15.84;87.55
14253;BME280;7210;51.502;10.722;2023-09-30T09:10:06;100822.38;;;15.89;87.38
14253;BME280;7210;51.502;10.722;2023-09-30T09:12:35;100813.69;;;15.93;87.06
14253;BME280;7210;51.502;10.722;2023-09-30T09:15:05;100845.94;;;16.03;86.83
14253;BME280;7210;51.502;10.722;2023-09-30T09:17:45;100838.16;;;16.13;86.56
14253;BME280;7210;51.502;10.722;2023-09-30T09:20:18;100859.75;;;16.23;86.24
14253;BME280;7210;51.502;10.722;2023-09-30T09:22:49;100868.69;;;16.29;86.29
14253;BME280;7210;51.502;10.722;2023-09-30T09:25:19;100886.56;;;16.51;85.80
14253;BME280;7210;51.502;10.722;2023-09-30T09:27:49;100870.91;;;16.55;85.03
14253;BME280;7210;51.502;10.722;2023-09-30T09:30:19;100883.75;;;16.69;84.47
14253;BME280;7210;51.502;10.722;2023-09-30T09:33:00;100915.91;;;16.97;84.24
14253;BME280;7210;51.502;10.722;2023-09-30T09:35:28;100898.56;;;17.11;83.06
14253;BME280;7210;51.502;10.722;2023-09-30T09:38:01;100855.00;;;16.99;81.54
14253;BME280;7210;51.502;10.722;2023-09-30T09:40:33;100866.63;;;17.05;80.63
14253;BME280;7210;51.502;10.722;2023-09-30T09:43:05;100863.13;;;17.04;79.95
14253;BME280;7210;51.502;10.722;2023-09-30T09:45:34;100891.44;;;17.17;79.82
14253;BME280;7210;51.502;10.722;2023-09-30T09:48:05;100872.50;;;17.18;78.91
14253;BME280;7210;51.502;10.722;2023-09-30T09:50:34;100859.16;;;17.07;78.25
14253;BME280;7210;51.502;10.722;2023-09-30T09:53:05;100851.19;;;16.95;77.66
14253;BME280;7210;51.502;10.722;2023-09-30T09:55:33;100861.28;;;17.05;77.06
14253;BME280;7210;51.502;10.722;2023-09-30T09:58:06;100862.41;;;17.09;76.35
14253;BME280;7210;51.502;10.722;2023-09-30T10:00:38;100872.28;;;17.08;75.88
14253;BME280;7210;51.502;10.722;2023-09-30T10:03:07;100885.53;;;17.15;75.55
14253;BME280;7210;51.502;10.722;2023-09-30T10:05:35;100905.25;;;17.25;75.45
14253;BME280;7210;51.502;10.722;2023-09-30T10:08:10;100921.84;;;17.39;75.21
14253;BME280;7210;51.502;10.722;2023-09-30T10:10:38;100938.69;;;17.39;75.35
14253;BME280;7210;51.502;10.722;2023-09-30T10:13:06;100884.91;;;17.24;74.35
14253;BME280;7210;51.502;10.722;2023-09-30T10:15:38;100900.50;;;17.16;74.63
14253;BME280;7210;51.502;10.722;2023-09-30T10:18:11;100895.13;;;17.27;74.01
14253;BME280;7210;51.502;10.722;2023-09-30T10:20:42;100928.94;;;17.33;74.18
14253;BME280;7210;51.502;10.722;2023-09-30T10:23:29;100950.66;;;17.48;73.73
14253;BME280;7210;51.502;10.722;2023-09-30T10:26:15;100952.59;;;17.64;73.45
14253;BME280;7210;51.502;10.722;2023-09-30T10:28:47;100974.50;;;17.78;73.51
14253;BME280;7210;51.502;10.722;2023-09-30T10:31:18;100957.63;;;17.77;73.04
14253;BME280;7210;51.502;10.722;2023-09-30T10:34:23;100956.94;;;17.70;72.90
14253;BME280;7210;51.502;10.722;2023-09-30T10:36:51;100930.28;;;17.75;72.48
14253;BME280;7210;51.502;10.722;2023-09-30T10:39:52;100935.75;;;17.80;72.27
14253;BME280;7210;51.502;10.722;2023-09-30T10:42:47;100974.72;;;18.04;72.33
14253;BME280;7210;51.502;10.722;2023-09-30T10:45:43;100899.56;;;17.78;71.26
14253;BME280;7210;51.502;10.722;2023-09-30T10:48:35;100888.16;;;17.82;70.68
14253;BME280;7210;51.502;10.722;2023-09-30T10:51:14;100915.06;;;17.76;71.14
14253;BME280;7210;51.502;10.722;2023-09-30T10:53:45;100938.03;;;17.88;71.09
14253;BME280;7210;51.502;10.722;2023-09-30T10:56:16;100932.94;;;18.03;70.40
14253;BME280;7210;51.502;10.722;2023-09-30T10:58:45;100913.25;;;18.09;70.06
14253;BME280;7210;51.502;10.722;2023-09-30T11:01:14;100926.69;;;18.14;70.10
14253;BME280;7210;51.502;10.722;2023-09-30T11:03:47;100845.72;;;18.07;68.16
14253;BME280;7210;51.502;10.722;2023-09-30T11:06:20;100781.47;;;18.07;66.70
14253;BME280;7210;51.502;10.722;2023-09-30T11:08:54;100798.72;;;18.16;66.06
14253;BME280;7210;51.502;10.722;2023-09-30T11:11:36;100902.38;;;18.32;67.22
14253;BME280;7210;51.502;10.722;2023-09-30T11:14:18;100884.69;;;18.31;66.65
14253;BME280;7210;51.502;10.722;2023-09-30T11:16:46;100946.50;;;18.46;67.23
14253;BME280;7210;51.502;10.722;2023-09-30T11:19:23;100926.66;;;18.42;67.15
14253;BME280;7210;51.502;10.722;2023-09-30T11:21:55;100917.13;;;18.18;67.24
14253;BME280;7210;51.502;10.722;2023-09-30T11:24:24;100909.97;;;18.07;67.12
14253;BME280;7210;51.502;10.722;2023-09-30T11:26:53;100985.19;;;18.22;68.04
14253;BME280;7210;51.502;10.722;2023-09-30T11:29:21;100967.09;;;18.29;67.97
14253;BME280;7210;51.502;10.722;2023-09-30T11:31:49;100898.72;;;18.38;66.06
14253;BME280;7210;51.502;10.722;2023-09-30T11:34:18;100871.03;;;18.49;65.62
14253;BME280;7210;51.502;10.722;2023-09-30T11:36:49;100824.03;;;18.63;63.73
14253;BME280;7210;51.502;10.722;2023-09-30T11:39:36;100805.34;;;18.68;63.04
14253;BME280;7210;51.502;10.722;2023-09-30T11:42:15;100771.06;;;18.70;62.08
14253;BME280;7210;51.502;10.722;2023-09-30T11:44:46;100770.59;;;18.73;61.74
14253;BME280;7210;51.502;10.722;2023-09-30T11:47:15;100815.16;;;18.79;62.67
14253;BME280;7210;51.502;10.722;2023-09-30T11:49:43;100802.78;;;18.78;62.10
14253;BME280;7210;51.502;10.722;2023-09-30T11:52:13;100849.13;;;18.95;62.18
14253;BME280;7210;51.502;10.722;2023-09-30T11:54:48;100824.31;;;18.83;62.30
14253;BME280;7210;51.502;10.722;2023-09-30T11:57:16;100828.34;;;18.86;62.10
14253;BME280;7210;51.502;10.722;2023-09-30T11:59:45;100839.88;;;18.86;62.00
14253;BME280;7210;51.502;10.722;2023-09-30T12:02:15;100836.75;;;18.94;61.64
14253;BME280;7210;51.502;10.722;2023-09-30T12:04:44;100760.53;;;18.85;60.89
14253;BME280;7210;51.502;10.722;2023-09-30T12:07:22;100787.31;;;18.85;61.15
14253;BME280;7210;51.502;10.722;2023-09-30T12:10:00;100806.22;;;18.95;61.05
14253;BME280;7210;51.502;10.722;2023-09-30T12:12:27;100833.03;;;18.95;61.69
14253;BME280;7210;51.502;10.722;2023-09-30T12:14:54;100900.09;;;19.00;62.14
14253;BME280;7210;51.502;10.722;2023-09-30T12:17:22;100835.44;;;18.97;61.43
14253;BME280;7210;51.502;10.722;2023-09-30T12:19:50;100789.56;;;18.93;60.89
14253;BME280;7210;51.502;10.722;2023-09-30T12:22:18;100815.75;;;19.08;60.81
14253;BME280;7210;51.502;10.722;2023-09-30T12:24:46;100786.28;;;19.13;60.06
14253;BME280;7210;51.502;10.722;2023-09-30T12:27:23;100774.75;;;19.12;59.85
14253;BME280;7210;51.502;10.722;2023-09-30T12:29:51;100802.25;;;19.24;60.15
14253;BME280;7210;51.502;10.722;2023-09-30T12:32:18;100840.03;;;19.44;59.89
14253;BME280;7210;51.502;10.722;2023-09-30T12:34:45;100808.91;;;19.43;59.46
14253;BME280;7210;51.502;10.722;2023-09-30T12:37:12;100761.56;;;19.32;59.17
14253;BME280;7210;51.502;10.722;2023-09-30T12:39:40;100800.31;;;19.41;59.07
14253;BME280;7210;51.502;10.722;2023-09-30T12:42:07;100787.22;;;19.49;58.80
14253;BME280;7210;51.502;10.722;2023-09-30T12:44:39;100737.41;;;19.32;58.67
14253;BME280;7210;51.502;10.722;2023-09-30T12:47:06;100799.25;;;19.47;59.11
14253;BME280;7210;51.502;10.722;2023-09-30T12:49:34;100806.97;;;19.70;58.27
14253;BME280;7210;51.502;10.722;2023-09-30T12:52:01;100660.63;;;19.57;56.75
14253;BME280;7210;51.502;10.722;2023-09-30T12:54:28;100681.84;;;19.64;56.94
14253;BME280;7210;51.502;10.722;2023-09-30T12:56:55;100670.56;;;19.62;56.38
14253;BME280;7210;51.502;10.722;2023-09-30T12:59:23;100692.59;;;19.64;56.81